Kezdőlap
METAR-TAF:

METAR-TAF

Repülőterek :

Aktobe, Kazahsztán

földrajzi szélesség: 50-17N, földrajzi hosszúság: 057-09E, magasság: 227 m

Jelenlegi meteorológiai megfigyelések

A jelentés 35 perccel ezelõtt készült, 02:30 UTC
Nyugati szél 6 kt
Hőmérséklet 9°C
Páratartalom 61%
Légköri nyomás 1015 hPa
Látótávolság 10 km, vagy több
Szakadozott felhőzet 5100 lábon, Cumulonimbus.
enyhe záporok

METAR: UATT 250230Z 26003MPS 9999 -SHRA BKN051CB 09/02 Q1015 R31/29//50 NOSIG RMK QFE741/0989

Idő: 08:05 (03:05 UTC)

Előrejelzés

A jelentés 4 órával és 5 perccel ezelõtt készült, 23:00 UTC
Az előrejelzés 25-én 00 óra UTC és 25-én 24 óra UTC között érvényes
Nyugati szél 10 kt
Látótávolság 10 km, vagy több
Szakadozott felhőzet 2000 lábon, Cumulonimbus.
enyhe záporok
25-én 03 óra UTC és 25-én 12 óra UTC között ideiglenes
Északnyugati szél 19 kt

TAF: UATT 242300Z 2500/2524 28005MPS 9999 -SHRA BKN020CB TX16/2511Z TN07/2501Z TEMPO 2503/2512 32010MPS

Meteorológiai megfigyelések és előrejelzések több, mint 4000 repülőtéren (METAR és TAF jelentéseket).

A térképen piros és sárga pontok jelzik az elérhető meteorológiai állomásokat.

Mozgassa az egeret a pont fölött, hogy megjelenjen az állomás neve.

Azután kattintson az időjárási megfigyelések és előrejelzések megtekintéséhez.

A térkép megváltoztatása: kattintson a fekete keresztel jelölt zöld gombra ráközelítéshez, a vonallal jelölt zöld gombra távolításhoz, vagy a zöld nyilakra a szomszédos térképek eléréséhez.


METAR-TAF: